createdAt,value
2018-06-08T00:01:05.417Z,97371.52
2018-06-08T00:06:57.273Z,97377.16
2018-06-08T00:09:48.259Z,97368.80
2018-06-08T00:12:42.065Z,97365.49
2018-06-08T00:15:32.953Z,97364.95
2018-06-08T00:18:18.932Z,97366.84
2018-06-08T00:21:12.514Z,97360.34
2018-06-08T00:23:59.267Z,97366.45
2018-06-08T00:26:58.089Z,97363.41
2018-06-08T00:29:46.852Z,97368.03
2018-06-08T00:32:24.395Z,97365.12
2018-06-08T00:34:54.272Z,97367.73
2018-06-08T00:37:24.468Z,97365.98
2018-06-08T00:42:29.198Z,97365.06
2018-06-08T00:44:58.712Z,97374.06
2018-06-08T00:47:28.365Z,97370.92
2018-06-08T00:49:58.071Z,97366.00
2018-06-08T00:52:28.175Z,97368.25
2018-06-08T00:54:57.570Z,97365.26
2018-06-08T00:57:28.539Z,97368.06
2018-06-08T00:59:58.181Z,97363.69
2018-06-08T01:02:27.953Z,97356.98
2018-06-08T01:04:57.776Z,97361.34
2018-06-08T01:07:27.620Z,97360.00
2018-06-08T01:09:57.386Z,97362.14
2018-06-08T01:12:27.562Z,97365.08
2018-06-08T01:14:57.914Z,97366.11
2018-06-08T01:17:28.739Z,97360.65
2018-06-08T01:20:01.569Z,97366.67
2018-06-08T01:22:31.202Z,97362.92
2018-06-08T01:25:01.815Z,97360.62
2018-06-08T01:27:31.653Z,97360.14
2018-06-08T01:30:02.980Z,97360.14
2018-06-08T01:32:32.878Z,97356.00
2018-06-08T01:35:03.111Z,97357.22
2018-06-08T01:37:32.988Z,97361.63
2018-06-08T01:40:03.333Z,97365.41
2018-06-08T01:42:33.001Z,97364.71
2018-06-08T01:45:02.646Z,97362.19
2018-06-08T01:47:32.486Z,97363.74
2018-06-08T01:50:02.271Z,97365.25
2018-06-08T01:52:32.133Z,97360.42
2018-06-08T01:55:02.190Z,97363.69
2018-06-08T01:57:31.918Z,97364.89
2018-06-08T02:00:04.764Z,97374.93
2018-06-08T02:02:35.388Z,97370.77
2018-06-08T02:05:05.082Z,97375.22
2018-06-08T02:07:35.276Z,97373.25
2018-06-08T02:10:05.346Z,97370.86
2018-06-08T02:12:35.562Z,97372.53
2018-06-08T02:17:40.294Z,97370.19
2018-06-08T02:20:10.172Z,97379.96
2018-06-08T02:22:40.507Z,97376.80
2018-06-08T02:25:10.287Z,97378.90
2018-06-08T02:27:40.120Z,97375.12
2018-06-08T02:30:10.035Z,97373.61
2018-06-08T02:32:39.864Z,97378.14
2018-06-08T02:35:09.560Z,97379.26
2018-06-08T02:37:39.364Z,97377.20
2018-06-08T02:40:09.037Z,97382.23
2018-06-08T02:42:38.827Z,97377.92
2018-06-08T02:45:08.677Z,97366.50
2018-06-08T02:47:38.430Z,97365.38
2018-06-08T02:50:08.314Z,97371.47
2018-06-08T02:52:37.896Z,97363.37
2018-06-08T02:55:07.632Z,97363.56
2018-06-08T02:57:37.263Z,97363.61
2018-06-08T03:00:07.910Z,97354.59
2018-06-08T03:02:38.160Z,97351.11
2018-06-08T03:07:43.106Z,97348.67
2018-06-08T03:10:12.908Z,97356.19
2018-06-08T03:12:42.725Z,97356.33
2018-06-08T03:15:12.474Z,97345.88
2018-06-08T03:17:42.278Z,97351.76
2018-06-08T03:22:55.099Z,97342.00
2018-06-08T03:25:29.501Z,97332.85
2018-06-08T03:28:08.955Z,97329.52
2018-06-08T03:30:50.021Z,97328.30
2018-06-08T03:33:27.791Z,97325.09
2018-06-08T03:36:13.319Z,97338.12
2018-06-08T03:38:48.635Z,97330.05
2018-06-08T03:41:25.140Z,97329.31
2018-06-08T03:44:08.192Z,97333.59
2018-06-08T03:46:46.720Z,97335.54
2018-06-08T03:49:25.107Z,97336.67
2018-06-08T03:52:05.314Z,97342.36
2018-06-08T03:54:45.208Z,97338.25
2018-06-08T03:57:25.413Z,97340.76
2018-06-08T04:00:06.313Z,97345.22
2018-06-08T04:02:44.090Z,97346.39
2018-06-08T04:05:22.103Z,97344.38
2018-06-08T04:07:58.832Z,97351.84
2018-06-08T04:10:32.676Z,97343.75
2018-06-08T04:13:09.018Z,97346.29
2018-06-08T04:15:50.443Z,97343.08
2018-06-08T04:18:35.023Z,97341.19
2018-06-08T04:21:11.800Z,97337.89
2018-06-08T04:23:50.773Z,97333.83
2018-06-08T04:26:30.415Z,97329.88
2018-06-08T04:29:09.287Z,97335.99
2018-06-08T04:31:52.577Z,97347.41
2018-06-08T04:34:31.908Z,97347.68
2018-06-08T04:37:15.149Z,97350.11
2018-06-08T04:39:48.044Z,97346.69
2018-06-08T04:42:29.585Z,97343.84
2018-06-08T04:45:06.076Z,97346.63
2018-06-08T04:47:42.166Z,97347.63
2018-06-08T04:50:19.072Z,97352.80
2018-06-08T04:52:51.447Z,97353.00
2018-06-08T04:55:30.962Z,97358.94
2018-06-08T04:58:06.431Z,97371.65
2018-06-08T05:00:40.937Z,97369.35
2018-06-08T05:03:20.197Z,97366.22
2018-06-08T05:05:54.029Z,97361.96
2018-06-08T05:08:39.778Z,97367.85
2018-06-08T05:11:18.836Z,97371.13
2018-06-08T05:13:53.461Z,97371.19
2018-06-08T05:16:35.165Z,97376.58
2018-06-08T05:19:17.043Z,97383.02
2018-06-08T05:21:53.823Z,97386.23
2018-06-08T05:24:30.527Z,97389.72
2018-06-08T05:27:07.557Z,97379.52
2018-06-08T05:29:48.756Z,97379.22
2018-06-08T05:32:22.240Z,97383.16
2018-06-08T05:34:58.839Z,97382.06
2018-06-08T05:37:37.122Z,97379.87
2018-06-08T05:40:11.863Z,97384.13
2018-06-08T05:42:46.686Z,97376.83
2018-06-08T05:45:30.747Z,97374.14
2018-06-08T05:48:15.415Z,97373.66
2018-06-08T05:53:30.489Z,97362.30
2018-06-08T05:56:06.403Z,97349.75
2018-06-08T05:58:43.633Z,97352.74
2018-06-08T06:01:22.391Z,97353.44
2018-06-08T06:03:59.537Z,97353.17
2018-06-08T06:06:32.727Z,97345.78
2018-06-08T06:09:08.178Z,97348.90
2018-06-08T06:11:47.031Z,97343.00
2018-06-08T06:14:25.915Z,97340.37
2018-06-08T06:17:05.740Z,97333.83
2018-06-08T06:19:46.570Z,97334.75
2018-06-08T06:22:27.311Z,97336.92
2018-06-08T06:33:08.253Z,97360.78
2018-06-08T06:35:52.237Z,97363.58
2018-06-08T06:38:32.475Z,97365.88
2018-06-08T06:41:06.817Z,97369.41
2018-06-08T06:46:29.252Z,97360.95
2018-06-08T06:49:08.031Z,97367.55
2018-06-08T06:51:43.158Z,97366.23
2018-06-08T06:54:24.979Z,97368.19
2018-06-08T06:57:02.917Z,97370.25
2018-06-08T06:59:42.970Z,97375.34
2018-06-08T07:02:26.718Z,97377.32
2018-06-08T07:05:06.528Z,97370.84
2018-06-08T07:07:47.139Z,97371.23
2018-06-08T07:10:23.620Z,97374.98
2018-06-08T07:13:03.493Z,97377.20
2018-06-08T07:15:44.816Z,97384.16
2018-06-08T07:18:22.585Z,97384.24
2018-06-08T07:21:04.792Z,97392.41
2018-06-08T07:23:40.443Z,97383.76
2018-06-08T07:26:17.888Z,97384.59
2018-06-08T07:28:53.401Z,97396.09
2018-06-08T07:31:31.281Z,97403.58
2018-06-08T07:34:10.405Z,97400.36
2018-06-08T07:36:48.440Z,97391.45
2018-06-08T07:39:30.817Z,97381.91
2018-06-08T07:42:05.096Z,97374.00
2018-06-08T07:44:44.866Z,97370.44
2018-06-08T07:47:27.159Z,97359.16
2018-06-08T07:50:07.968Z,97359.30
2018-06-08T07:52:50.103Z,97364.48
2018-06-08T07:55:24.997Z,97354.56
2018-06-08T07:58:07.729Z,97353.21
2018-06-08T08:00:49.620Z,97348.30
2018-06-08T08:03:24.924Z,97343.52
2018-06-08T08:06:08.128Z,97336.83
2018-06-08T08:08:48.719Z,97328.50
2018-06-08T08:11:28.648Z,97331.97
2018-06-08T08:14:12.011Z,97328.71
2018-06-08T08:16:47.021Z,97323.87
2018-06-08T08:19:30.281Z,97318.61
2018-06-08T08:22:08.768Z,97314.25
2018-06-08T08:24:42.852Z,97306.93
2018-06-08T08:27:22.306Z,97302.98
2018-06-08T08:30:10.837Z,97299.98
2018-06-08T08:35:29.034Z,97302.97
2018-06-08T08:38:03.108Z,97302.67
2018-06-08T08:40:42.668Z,97310.78
2018-06-08T08:43:19.335Z,97315.52
2018-06-08T08:45:56.455Z,97319.66
2018-06-08T08:48:37.054Z,97318.87
2018-06-08T08:51:15.967Z,97307.91
2018-06-08T08:53:52.995Z,97303.34
2018-06-08T08:56:30.377Z,97298.95
2018-06-08T08:59:08.180Z,97300.50
2018-06-08T09:01:45.393Z,97300.96
2018-06-08T09:04:20.789Z,97299.16
2018-06-08T09:06:57.912Z,97296.78
2018-06-08T09:09:37.945Z,97298.80
2018-06-08T09:12:17.813Z,97300.30
2018-06-08T09:14:53.788Z,97288.83
2018-06-08T09:17:28.666Z,97281.11
2018-06-08T09:20:04.801Z,97283.24
2018-06-08T09:22:43.615Z,97280.50
2018-06-08T09:25:24.654Z,97288.22
2018-06-08T09:28:04.709Z,97286.40
2018-06-08T09:30:41.573Z,97282.39
2018-06-08T09:33:19.804Z,97284.56
2018-06-08T09:35:59.604Z,97281.33
2018-06-08T09:38:43.733Z,97275.56
2018-06-08T09:41:21.515Z,97275.48
2018-06-08T09:44:06.205Z,97273.97
2018-06-08T09:46:48.537Z,97273.17
2018-06-08T09:49:27.676Z,97277.97
2018-06-08T09:52:05.196Z,97275.75
2018-06-08T09:54:45.988Z,97274.59
2018-06-08T09:57:26.239Z,97267.89
2018-06-08T10:00:03.112Z,97268.52
2018-06-08T10:02:51.308Z,97274.95
2018-06-08T10:05:38.153Z,97263.63
2018-06-08T10:08:20.656Z,97268.25
2018-06-08T10:10:54.563Z,97266.09
2018-06-08T10:13:30.249Z,97263.55
2018-06-08T10:16:14.855Z,97259.01
2018-06-08T10:18:57.480Z,97247.88
2018-06-08T10:21:37.565Z,97247.55
2018-06-08T10:24:18.686Z,97243.83
2018-06-08T10:27:02.549Z,97249.16
2018-06-08T10:29:36.162Z,97247.88
2018-06-08T10:35:00.584Z,97247.64
2018-06-08T10:37:37.583Z,97244.84
2018-06-08T10:40:14.206Z,97244.83
2018-06-08T10:42:53.134Z,97241.30
2018-06-08T10:45:37.303Z,97246.45
2018-06-08T10:48:15.440Z,97232.34
2018-06-08T10:50:59.313Z,97237.61
2018-06-08T10:53:35.043Z,97242.39
2018-06-08T10:56:14.795Z,97242.70
2018-06-08T10:58:50.772Z,97236.55
2018-06-08T11:01:36.977Z,97235.13
2018-06-08T11:04:15.816Z,97234.67
2018-06-08T11:06:58.553Z,97240.19
2018-06-08T11:09:37.790Z,97237.96
2018-06-08T11:12:20.314Z,97240.84
2018-06-08T11:14:56.911Z,97233.52
2018-06-08T11:17:38.889Z,97235.91
2018-06-08T11:20:15.255Z,97238.52
2018-06-08T11:22:53.321Z,97240.33
2018-06-08T11:25:29.402Z,97233.20
2018-06-08T11:28:03.740Z,97230.07
2018-06-08T11:30:41.321Z,97230.11
2018-06-08T11:33:20.419Z,97217.52
2018-06-08T11:36:01.013Z,97222.47
2018-06-08T11:38:38.919Z,97216.84
2018-06-08T11:41:18.901Z,97221.34
2018-06-08T11:43:57.723Z,97207.97
2018-06-08T11:46:34.497Z,97208.55
2018-06-08T11:49:15.014Z,97210.73
2018-06-08T11:51:57.189Z,97202.63
2018-06-08T11:54:37.545Z,97201.84
2018-06-08T11:57:24.282Z,97198.58
2018-06-08T12:00:01.945Z,97200.50
2018-06-08T12:02:39.331Z,97198.36
2018-06-08T12:05:31.004Z,97192.12
2018-06-08T12:08:14.050Z,97196.47
2018-06-08T12:10:48.577Z,97195.46
2018-06-08T12:13:30.435Z,97190.33
2018-06-08T12:18:54.515Z,97190.06
2018-06-08T12:21:32.714Z,97179.93
2018-06-08T12:24:11.107Z,97175.13
2018-06-08T12:26:45.961Z,97170.36
2018-06-08T12:29:25.876Z,97171.41
2018-06-08T12:32:06.620Z,97167.08
2018-06-08T12:34:41.989Z,97166.99
2018-06-08T12:37:16.800Z,97163.59
2018-06-08T12:39:53.729Z,97169.09
2018-06-08T12:45:19.189Z,97162.44
2018-06-08T12:47:59.755Z,97156.51
2018-06-08T12:50:39.938Z,97158.34
2018-06-08T12:53:17.757Z,97157.91
2018-06-08T12:55:55.434Z,97152.91
2018-06-08T12:58:43.919Z,97150.76
2018-06-08T13:01:22.706Z,97145.44
2018-06-08T13:03:56.977Z,97143.22
2018-06-08T13:06:32.867Z,97132.75
2018-06-08T13:09:13.213Z,97131.31
2018-06-08T13:11:50.510Z,97129.06
2018-06-08T13:14:27.331Z,97131.45
2018-06-08T13:17:03.635Z,97123.86
2018-06-08T13:19:42.521Z,97118.44
2018-06-08T13:22:16.623Z,97120.66
2018-06-08T13:24:57.465Z,97111.75
2018-06-08T13:27:37.947Z,97106.45
2018-06-08T13:30:17.768Z,97107.78
2018-06-08T13:32:53.813Z,97099.39
2018-06-08T13:35:32.449Z,97092.91
2018-06-08T13:38:14.119Z,97082.64
2018-06-08T13:40:54.926Z,97082.73
2018-06-08T13:43:39.147Z,97075.08
2018-06-08T13:49:31.922Z,97073.63
2018-06-08T13:52:15.220Z,97063.03
2018-06-08T13:54:52.002Z,97058.34
2018-06-08T13:57:32.464Z,97060.28
2018-06-08T14:00:10.749Z,97059.80
2018-06-08T14:02:52.008Z,97058.13
2018-06-08T14:05:29.783Z,97058.93
2018-06-08T14:08:15.528Z,97051.59
2018-06-08T14:10:53.625Z,97043.50
2018-06-08T14:13:36.366Z,97041.22
2018-06-08T14:16:16.535Z,97042.16
2018-06-08T14:18:54.204Z,97039.73
2018-06-08T14:24:17.384Z,97034.64
2018-06-08T14:26:55.960Z,97034.31
2018-06-08T14:29:33.681Z,97034.48
2018-06-08T14:32:13.669Z,97033.92
2018-06-08T14:34:51.783Z,97033.07
2018-06-08T14:37:33.776Z,97022.92
2018-06-08T14:40:10.535Z,97015.56
2018-06-08T14:42:46.108Z,97004.92
2018-06-08T14:45:23.352Z,96994.88
2018-06-08T14:48:00.432Z,96999.84
2018-06-08T14:50:38.542Z,97003.34
2018-06-08T14:53:12.908Z,97007.86
2018-06-08T14:55:52.500Z,97019.10
2018-06-08T14:58:36.182Z,97017.14
2018-06-08T15:01:16.198Z,97012.39
2018-06-08T15:04:02.795Z,96999.33
2018-06-08T15:06:43.976Z,96991.28
2018-06-08T15:09:18.100Z,96995.00
2018-06-08T15:11:54.833Z,97009.02
2018-06-08T15:14:34.870Z,97016.69
2018-06-08T15:17:10.394Z,97016.50
2018-06-08T15:19:49.432Z,97012.30
2018-06-08T15:22:29.925Z,97028.64
2018-06-08T15:25:10.394Z,97055.73
2018-06-08T15:27:51.237Z,97060.06
2018-06-08T15:30:28.703Z,97058.14
2018-06-08T15:35:50.832Z,97032.47
2018-06-08T15:38:31.747Z,97045.48
2018-06-08T15:41:13.684Z,97056.17
2018-06-08T15:43:55.141Z,97054.80
2018-06-08T15:46:33.237Z,97067.61
2018-06-08T15:49:10.379Z,97065.91
2018-06-08T15:57:17.245Z,97079.74
2018-06-08T15:59:59.557Z,97085.72
2018-06-08T16:05:19.160Z,97082.66
2018-06-08T16:07:54.393Z,97087.34
2018-06-08T16:13:13.509Z,97089.35
2018-06-08T16:15:46.738Z,97089.94
2018-06-08T16:18:31.090Z,97099.84
2018-06-08T16:21:05.708Z,97100.20
2018-06-08T16:23:42.291Z,97099.05
2018-06-08T16:26:19.638Z,97104.48
2018-06-08T16:28:56.978Z,97106.03
2018-06-08T16:31:37.145Z,97110.22
2018-06-08T16:34:16.862Z,97115.25
2018-06-08T16:37:01.823Z,97124.18
2018-06-08T16:39:38.695Z,97134.44
2018-06-08T16:42:16.951Z,97129.27
2018-06-08T16:45:00.977Z,97130.88
2018-06-08T16:47:39.468Z,97133.42
2018-06-08T16:50:18.914Z,97135.30
2018-06-08T16:52:57.880Z,97135.36
2018-06-08T16:55:37.004Z,97149.83
2018-06-08T16:58:16.502Z,97157.10
2018-06-08T17:01:01.734Z,97148.86
2018-06-08T17:03:43.357Z,97149.48
2018-06-08T17:06:24.559Z,97148.34
2018-06-08T17:11:57.915Z,97143.34
2018-06-08T17:14:33.725Z,97147.70
2018-06-08T17:17:18.823Z,97157.48
2018-06-08T17:19:57.263Z,97153.51
2018-06-08T17:22:37.753Z,97168.53
2018-06-08T17:25:19.476Z,97177.17
2018-06-08T17:28:09.335Z,97180.03
2018-06-08T17:30:44.831Z,97178.33
2018-06-08T17:33:19.930Z,97178.93
2018-06-08T17:35:58.439Z,97189.06
2018-06-08T17:38:37.938Z,97198.02
2018-06-08T17:41:21.004Z,97206.81
2018-06-08T17:44:00.635Z,97203.19
2018-06-08T17:46:50.799Z,97201.08
2018-06-08T17:49:38.717Z,97212.06
2018-06-08T17:52:17.349Z,97217.23
2018-06-08T17:54:58.920Z,97218.63
2018-06-08T17:57:43.400Z,97207.64
2018-06-08T18:00:19.856Z,97210.84
2018-06-08T18:05:59.657Z,97187.73
2018-06-08T18:08:44.112Z,97181.41
2018-06-08T18:14:28.452Z,97148.09
2018-06-08T18:20:09.163Z,97134.84
2018-06-08T18:28:50.658Z,97111.00
2018-06-08T18:31:34.190Z,97081.70
2018-06-08T18:34:21.832Z,97050.23
2018-06-08T18:37:03.308Z,97015.88
2018-06-08T18:39:53.985Z,96973.43
2018-06-08T18:45:23.814Z,96926.88
2018-06-08T18:48:05.618Z,96926.69
2018-06-08T18:50:53.575Z,96932.42
2018-06-08T18:53:42.146Z,96925.48
2018-06-08T18:56:24.944Z,96918.33
2018-06-08T18:59:21.869Z,96937.87
2018-06-08T19:02:14.756Z,96965.59
2018-06-08T19:04:58.101Z,96987.65
2018-06-08T19:07:47.566Z,97013.03
2018-06-08T19:13:27.423Z,97022.09
2018-06-08T19:16:18.417Z,97024.31
2018-06-08T19:19:08.364Z,97035.03
2018-06-08T19:24:45.609Z,97003.66
2018-06-08T19:27:37.329Z,97007.08
2018-06-08T19:30:19.561Z,97007.32
2018-06-08T19:33:08.266Z,96987.88
2018-06-08T19:35:58.968Z,96996.94
2018-06-08T19:38:43.761Z,97011.45
2018-06-08T19:41:29.692Z,97018.48
2018-06-08T19:44:12.063Z,97043.37
2018-06-08T19:46:57.932Z,97074.37
2018-06-08T19:49:51.471Z,97077.69
2018-06-08T19:52:32.886Z,97065.91
2018-06-08T19:55:15.434Z,97059.30
2018-06-08T19:57:56.311Z,97061.19
2018-06-08T20:00:44.418Z,97053.40
2018-06-08T20:03:24.262Z,97043.04
2018-06-08T20:06:00.799Z,97023.75
2018-06-08T20:08:42.228Z,97014.13
2018-06-08T20:11:27.816Z,97022.76
2018-06-08T20:14:13.604Z,97029.72
2018-06-08T20:16:54.305Z,97024.55
2018-06-08T20:19:38.517Z,97011.69
2018-06-08T20:25:13.645Z,96998.09
2018-06-08T20:27:55.146Z,96978.16
2018-06-08T20:30:37.600Z,96960.76
2018-06-08T20:33:30.333Z,96963.90
2018-06-08T20:36:08.442Z,96991.36
2018-06-08T20:41:40.748Z,97029.49
2018-06-08T20:47:14.680Z,97035.66
2018-06-08T20:50:01.931Z,97040.21
2018-06-08T20:52:42.078Z,97051.45
2018-06-08T20:55:25.545Z,97052.53
2018-06-08T20:58:08.248Z,97071.73
2018-06-08T21:00:49.244Z,97089.70
2018-06-08T21:03:33.363Z,97111.71
2018-06-08T21:14:42.562Z,97161.73
2018-06-08T21:20:09.157Z,97169.27
2018-06-08T21:22:58.851Z,97175.62
2018-06-08T21:25:40.339Z,97183.13
2018-06-08T21:28:25.697Z,97179.42
2018-06-08T21:31:07.276Z,97186.64
2018-06-08T21:33:52.883Z,97197.58
2018-06-08T21:36:36.307Z,97215.67
2018-06-08T21:39:23.881Z,97259.33
2018-06-08T21:42:09.181Z,97337.62
2018-06-08T21:44:58.882Z,97340.84
2018-06-08T21:47:44.967Z,97348.12
2018-06-08T21:50:23.696Z,97348.42
2018-06-08T21:53:12.075Z,97346.22
2018-06-08T21:55:58.114Z,97343.63
2018-06-08T21:58:41.707Z,97349.33
2018-06-08T22:01:28.591Z,97351.97
2018-06-08T22:04:10.544Z,97353.14
2018-06-08T22:06:52.935Z,97344.68
2018-06-08T22:09:37.672Z,97349.84
2018-06-08T22:12:21.585Z,97351.44
2018-06-08T22:17:45.528Z,97333.48
2018-06-08T22:20:24.713Z,97330.13
2018-06-08T22:23:12.088Z,97333.20
2018-06-08T22:25:55.141Z,97340.05
2018-06-08T22:28:39.301Z,97339.98
2018-06-08T22:31:23.078Z,97336.47
2018-06-08T22:34:02.257Z,97342.56
2018-06-08T22:39:39.389Z,97341.52
2018-06-08T22:42:23.902Z,97343.26
2018-06-08T22:45:04.315Z,97343.88
2018-06-08T22:47:52.100Z,97343.72
2018-06-08T22:50:33.018Z,97337.48
2018-06-08T22:53:16.870Z,97326.07
2018-06-08T22:55:56.674Z,97312.14
2018-06-08T22:58:41.132Z,97307.61
2018-06-08T23:01:20.001Z,97291.77
2018-06-08T23:04:07.354Z,97285.58
2018-06-08T23:09:42.537Z,97260.33
2018-06-08T23:12:26.229Z,97252.38
2018-06-08T23:15:12.661Z,97239.00
2018-06-08T23:20:50.961Z,97223.16
2018-06-08T23:23:44.570Z,97216.18
2018-06-08T23:29:13.262Z,97186.41
2018-06-08T23:32:06.611Z,97157.98
2018-06-08T23:34:55.591Z,97134.58
2018-06-08T23:40:32.212Z,97104.71
2018-06-08T23:43:21.617Z,97095.34
2018-06-08T23:46:02.244Z,97086.16
2018-06-08T23:48:47.027Z,97072.78
2018-06-08T23:51:27.870Z,97066.11
2018-06-08T23:54:17.196Z,97061.17
2018-06-08T23:57:04.994Z,97041.33
2018-06-08T23:59:51.733Z,97016.27
